sensor_id;sensor_type;location;lat;lon;timestamp;temperature;humidity
59556;DHT22;45374;52.746;6.304;2023-03-01T00:04:21;-2.00;99.90
59556;DHT22;45374;52.746;6.304;2023-03-01T00:06:46;-2.00;99.90
59556;DHT22;45374;52.746;6.304;2023-03-01T00:09:13;-2.00;99.90
59556;DHT22;45374;52.746;6.304;2023-03-01T00:11:39;-2.00;99.90
59556;DHT22;45374;52.746;6.304;2023-03-01T00:14:05;-2.00;99.90
59556;DHT22;45374;52.746;6.304;2023-03-01T00:16:34;-2.10;99.90
59556;DHT22;45374;52.746;6.304;2023-03-01T00:19:00;-2.10;99.90
59556;DHT22;45374;52.746;6.304;2023-03-01T00:21:26;-2.00;99.90
59556;DHT22;45374;52.746;6.304;2023-03-01T00:23:52;-2.10;99.90
59556;DHT22;45374;52.746;6.304;2023-03-01T00:26:19;-2.10;99.90
59556;DHT22;45374;52.746;6.304;2023-03-01T00:28:45;-2.20;99.90
59556;DHT22;45374;52.746;6.304;2023-03-01T00:31:17;-2.20;99.90
59556;DHT22;45374;52.746;6.304;2023-03-01T00:33:44;-2.20;99.90
59556;DHT22;45374;52.746;6.304;2023-03-01T00:36:11;-2.20;99.90
59556;DHT22;45374;52.746;6.304;2023-03-01T00:38:38;-2.20;99.90
59556;DHT22;45374;52.746;6.304;2023-03-01T00:44:29;-2.30;99.90
59556;DHT22;45374;52.746;6.304;2023-03-01T00:46:54;-2.40;99.90
59556;DHT22;45374;52.746;6.304;2023-03-01T00:49:20;-2.40;99.90
59556;DHT22;45374;52.746;6.304;2023-03-01T00:51:46;-2.50;99.90
59556;DHT22;45374;52.746;6.304;2023-03-01T00:54:11;-2.50;99.90
59556;DHT22;45374;52.746;6.304;2023-03-01T00:56:37;-2.50;99.90
59556;DHT22;45374;52.746;6.304;2023-03-01T00:59:02;-2.50;99.90
59556;DHT22;45374;52.746;6.304;2023-03-01T01:01:29;-2.60;99.90
59556;DHT22;45374;52.746;6.304;2023-03-01T01:04:00;-2.60;99.90
59556;DHT22;45374;52.746;6.304;2023-03-01T01:06:29;-2.60;99.90
59556;DHT22;45374;52.746;6.304;2023-03-01T01:08:55;-2.60;99.90
59556;DHT22;45374;52.746;6.304;2023-03-01T01:11:23;-2.60;99.90
59556;DHT22;45374;52.746;6.304;2023-03-01T01:13:49;-2.60;99.90
59556;DHT22;45374;52.746;6.304;2023-03-01T01:16:16;-2.60;99.90
59556;DHT22;45374;52.746;6.304;2023-03-01T01:18:42;-2.60;99.90
59556;DHT22;45374;52.746;6.304;2023-03-01T01:21:11;-2.60;99.90
59556;DHT22;45374;52.746;6.304;2023-03-01T01:23:37;-2.50;99.90
59556;DHT22;45374;52.746;6.304;2023-03-01T01:26:08;-2.50;99.90
59556;DHT22;45374;52.746;6.304;2023-03-01T01:28:35;-2.50;99.90
59556;DHT22;45374;52.746;6.304;2023-03-01T01:31:02;-2.60;99.90
59556;DHT22;45374;52.746;6.304;2023-03-01T01:33:27;-2.60;99.90
59556;DHT22;45374;52.746;6.304;2023-03-01T01:35:53;-2.60;99.90
59556;DHT22;45374;52.746;6.304;2023-03-01T01:38:19;-2.60;99.90
59556;DHT22;45374;52.746;6.304;2023-03-01T01:40:47;-2.60;99.90
59556;DHT22;45374;52.746;6.304;2023-03-01T01:43:24;-2.60;99.90
59556;DHT22;45374;52.746;6.304;2023-03-01T01:45:51;-2.60;99.90
59556;DHT22;45374;52.746;6.304;2023-03-01T01:48:23;-2.60;99.90
59556;DHT22;45374;52.746;6.304;2023-03-01T01:50:55;-2.60;99.90
59556;DHT22;45374;52.746;6.304;2023-03-01T01:53:22;-2.60;99.90
59556;DHT22;45374;52.746;6.304;2023-03-01T01:55:53;-2.60;99.90
59556;DHT22;45374;52.746;6.304;2023-03-01T01:58:21;-2.60;99.90
59556;DHT22;45374;52.746;6.304;2023-03-01T02:00:47;-2.60;99.90
59556;DHT22;45374;52.746;6.304;2023-03-01T02:03:19;-2.50;99.90
59556;DHT22;45374;52.746;6.304;2023-03-01T02:09:26;-2.50;99.90
59556;DHT22;45374;52.746;6.304;2023-03-01T02:11:53;-2.40;99.90
59556;DHT22;45374;52.746;6.304;2023-03-01T02:14:19;-2.40;99.90
59556;DHT22;45374;52.746;6.304;2023-03-01T02:16:45;-2.30;99.90
59556;DHT22;45374;52.746;6.304;2023-03-01T02:19:21;-2.20;99.90
59556;DHT22;45374;52.746;6.304;2023-03-01T02:22:02;-2.10;99.90
59556;DHT22;45374;52.746;6.304;2023-03-01T02:24:45;-2.00;99.90
59556;DHT22;45374;52.746;6.304;2023-03-01T02:27:16;-1.90;99.90
59556;DHT22;45374;52.746;6.304;2023-03-01T02:29:42;-1.90;99.90
59556;DHT22;45374;52.746;6.304;2023-03-01T02:32:11;-1.80;99.90
59556;DHT22;45374;52.746;6.304;2023-03-01T02:34:38;-1.80;99.90
59556;DHT22;45374;52.746;6.304;2023-03-01T02:37:09;-1.80;99.90
59556;DHT22;45374;52.746;6.304;2023-03-01T02:39:44;-1.80;99.90
59556;DHT22;45374;52.746;6.304;2023-03-01T02:42:14;-1.80;99.90
59556;DHT22;45374;52.746;6.304;2023-03-01T02:44:40;-1.80;99.90
59556;DHT22;45374;52.746;6.304;2023-03-01T02:47:06;-1.90;99.90
59556;DHT22;45374;52.746;6.304;2023-03-01T02:49:34;-1.90;99.90
59556;DHT22;45374;52.746;6.304;2023-03-01T02:55:11;-2.10;99.90
59556;DHT22;45374;52.746;6.304;2023-03-01T02:57:40;-2.20;99.90
59556;DHT22;45374;52.746;6.304;2023-03-01T03:00:11;-2.20;99.90
59556;DHT22;45374;52.746;6.304;2023-03-01T03:03:19;-2.20;99.90
59556;DHT22;45374;52.746;6.304;2023-03-01T03:05:45;-2.30;99.90
59556;DHT22;45374;52.746;6.304;2023-03-01T03:08:11;-2.30;99.90
59556;DHT22;45374;52.746;6.304;2023-03-01T03:10:40;-2.40;99.90
59556;DHT22;45374;52.746;6.304;2023-03-01T03:13:12;-2.40;99.90
59556;DHT22;45374;52.746;6.304;2023-03-01T03:15:39;-2.50;99.90
59556;DHT22;45374;52.746;6.304;2023-03-01T03:18:11;-2.60;99.90
59556;DHT22;45374;52.746;6.304;2023-03-01T03:20:40;-2.60;99.90
59556;DHT22;45374;52.746;6.304;2023-03-01T03:23:06;-2.70;99.90
59556;DHT22;45374;52.746;6.304;2023-03-01T03:25:31;-2.70;99.90
59556;DHT22;45374;52.746;6.304;2023-03-01T03:27:57;-2.80;99.90
59556;DHT22;45374;52.746;6.304;2023-03-01T03:30:31;-2.90;99.90
59556;DHT22;45374;52.746;6.304;2023-03-01T03:32:57;-3.00;99.90
59556;DHT22;45374;52.746;6.304;2023-03-01T03:35:29;-3.10;99.90
59556;DHT22;45374;52.746;6.304;2023-03-01T03:37:57;-3.20;99.90
59556;DHT22;45374;52.746;6.304;2023-03-01T03:42:58;-3.30;99.90
59556;DHT22;45374;52.746;6.304;2023-03-01T03:45:24;-3.40;99.90
59556;DHT22;45374;52.746;6.304;2023-03-01T03:47:50;-3.40;99.90
59556;DHT22;45374;52.746;6.304;2023-03-01T03:50:17;-3.40;99.90
59556;DHT22;45374;52.746;6.304;2023-03-01T03:52:43;-3.30;99.90
59556;DHT22;45374;52.746;6.304;2023-03-01T03:55:10;-3.30;99.90
59556;DHT22;45374;52.746;6.304;2023-03-01T03:57:42;-3.30;99.90
59556;DHT22;45374;52.746;6.304;2023-03-01T04:00:10;-3.30;99.90
59556;DHT22;45374;52.746;6.304;2023-03-01T04:02:45;-3.30;99.90
59556;DHT22;45374;52.746;6.304;2023-03-01T04:05:13;-3.30;99.90
59556;DHT22;45374;52.746;6.304;2023-03-01T04:07:40;-3.30;99.90
59556;DHT22;45374;52.746;6.304;2023-03-01T04:10:08;-3.40;99.90
59556;DHT22;45374;52.746;6.304;2023-03-01T04:12:35;-3.30;99.90
59556;DHT22;45374;52.746;6.304;2023-03-01T04:15:01;-3.40;99.90
59556;DHT22;45374;52.746;6.304;2023-03-01T04:17:38;-3.30;99.90
59556;DHT22;45374;52.746;6.304;2023-03-01T04:20:05;-3.40;99.90
59556;DHT22;45374;52.746;6.304;2023-03-01T04:22:31;-3.40;99.90
59556;DHT22;45374;52.746;6.304;2023-03-01T04:24:57;-3.40;99.90
59556;DHT22;45374;52.746;6.304;2023-03-01T04:27:23;-3.40;99.90
59556;DHT22;45374;52.746;6.304;2023-03-01T04:29:49;-3.40;99.90
59556;DHT22;45374;52.746;6.304;2023-03-01T04:32:14;-3.50;99.90
59556;DHT22;45374;52.746;6.304;2023-03-01T04:34:41;-3.60;99.90
59556;DHT22;45374;52.746;6.304;2023-03-01T04:37:07;-3.60;99.90
59556;DHT22;45374;52.746;6.304;2023-03-01T04:39:34;-3.70;99.90
59556;DHT22;45374;52.746;6.304;2023-03-01T04:42:16;-3.80;99.90
59556;DHT22;45374;52.746;6.304;2023-03-01T04:44:43;-4.00;99.90
59556;DHT22;45374;52.746;6.304;2023-03-01T04:47:08;-4.10;99.90
59556;DHT22;45374;52.746;6.304;2023-03-01T04:49:34;-4.20;99.90
59556;DHT22;45374;52.746;6.304;2023-03-01T04:52:00;-4.40;99.90
59556;DHT22;45374;52.746;6.304;2023-03-01T04:54:36;-4.40;99.90
59556;DHT22;45374;52.746;6.304;2023-03-01T04:57:03;-4.50;99.90
59556;DHT22;45374;52.746;6.304;2023-03-01T04:59:29;-4.40;99.90
59556;DHT22;45374;52.746;6.304;2023-03-01T05:01:55;-4.40;99.90
59556;DHT22;45374;52.746;6.304;2023-03-01T05:04:22;-4.40;99.90
59556;DHT22;45374;52.746;6.304;2023-03-01T05:06:48;-4.40;99.90
59556;DHT22;45374;52.746;6.304;2023-03-01T05:09:14;-4.50;99.90
59556;DHT22;45374;52.746;6.304;2023-03-01T05:11:39;-4.50;99.90
59556;DHT22;45374;52.746;6.304;2023-03-01T05:14:06;-4.40;99.90
59556;DHT22;45374;52.746;6.304;2023-03-01T05:16:32;-4.50;99.90
59556;DHT22;45374;52.746;6.304;2023-03-01T05:18:59;-4.40;99.90
59556;DHT22;45374;52.746;6.304;2023-03-01T05:21:25;-4.50;99.90
59556;DHT22;45374;52.746;6.304;2023-03-01T05:23:50;-4.50;99.90
59556;DHT22;45374;52.746;6.304;2023-03-01T05:26:19;-4.50;99.90
59556;DHT22;45374;52.746;6.304;2023-03-01T05:28:47;-4.50;99.90
59556;DHT22;45374;52.746;6.304;2023-03-01T05:31:13;-4.50;99.90
59556;DHT22;45374;52.746;6.304;2023-03-01T05:33:39;-4.50;99.90
59556;DHT22;45374;52.746;6.304;2023-03-01T05:36:07;-4.50;99.90
59556;DHT22;45374;52.746;6.304;2023-03-01T05:38:33;-4.50;99.90
59556;DHT22;45374;52.746;6.304;2023-03-01T05:40:59;-4.50;99.90
59556;DHT22;45374;52.746;6.304;2023-03-01T05:43:25;-4.50;99.90
59556;DHT22;45374;52.746;6.304;2023-03-01T05:45:51;-4.50;99.90
59556;DHT22;45374;52.746;6.304;2023-03-01T05:48:17;-4.50;99.90
59556;DHT22;45374;52.746;6.304;2023-03-01T05:50:45;-4.50;99.90
59556;DHT22;45374;52.746;6.304;2023-03-01T05:53:17;-4.50;99.90
59556;DHT22;45374;52.746;6.304;2023-03-01T05:55:44;-4.60;99.90
59556;DHT22;45374;52.746;6.304;2023-03-01T05:58:15;-4.50;99.90
59556;DHT22;45374;52.746;6.304;2023-03-01T06:00:42;-4.50;99.90
59556;DHT22;45374;52.746;6.304;2023-03-01T06:03:10;-4.60;99.90
59556;DHT22;45374;52.746;6.304;2023-03-01T06:05:37;-4.50;99.90
59556;DHT22;45374;52.746;6.304;2023-03-01T06:08:03;-4.50;99.90
59556;DHT22;45374;52.746;6.304;2023-03-01T06:10:29;-4.50;99.90
59556;DHT22;45374;52.746;6.304;2023-03-01T06:12:55;-4.50;99.90
59556;DHT22;45374;52.746;6.304;2023-03-01T06:15:21;-4.50;99.90
59556;DHT22;45374;52.746;6.304;2023-03-01T06:17:46;-4.50;99.90
59556;DHT22;45374;52.746;6.304;2023-03-01T06:20:21;-4.60;99.90
59556;DHT22;45374;52.746;6.304;2023-03-01T06:22:47;-4.60;99.90
59556;DHT22;45374;52.746;6.304;2023-03-01T06:25:16;-4.60;99.90
59556;DHT22;45374;52.746;6.304;2023-03-01T06:27:42;-4.60;99.90
59556;DHT22;45374;52.746;6.304;2023-03-01T06:30:10;-4.70;99.90
59556;DHT22;45374;52.746;6.304;2023-03-01T06:32:37;-4.60;99.90
59556;DHT22;45374;52.746;6.304;2023-03-01T06:35:07;-4.60;99.90
59556;DHT22;45374;52.746;6.304;2023-03-01T06:37:33;-4.60;99.90
59556;DHT22;45374;52.746;6.304;2023-03-01T06:39:59;-4.50;99.90
59556;DHT22;45374;52.746;6.304;2023-03-01T06:42:24;-4.50;99.90
59556;DHT22;45374;52.746;6.304;2023-03-01T06:44:50;-4.40;99.90
59556;DHT22;45374;52.746;6.304;2023-03-01T06:47:15;-4.40;99.90
59556;DHT22;45374;52.746;6.304;2023-03-01T06:49:41;-4.30;99.90
59556;DHT22;45374;52.746;6.304;2023-03-01T06:52:06;-4.20;99.90
59556;DHT22;45374;52.746;6.304;2023-03-01T06:54:32;-4.20;99.90
59556;DHT22;45374;52.746;6.304;2023-03-01T06:56:58;-4.20;99.90
59556;DHT22;45374;52.746;6.304;2023-03-01T06:59:23;-4.20;99.90
59556;DHT22;45374;52.746;6.304;2023-03-01T07:01:49;-4.00;99.90
59556;DHT22;45374;52.746;6.304;2023-03-01T07:04:14;-4.00;99.90
59556;DHT22;45374;52.746;6.304;2023-03-01T07:06:40;-4.00;99.90
59556;DHT22;45374;52.746;6.304;2023-03-01T07:09:06;-3.90;99.90
59556;DHT22;45374;52.746;6.304;2023-03-01T07:11:31;-3.90;99.90
59556;DHT22;45374;52.746;6.304;2023-03-01T07:13:57;-3.80;99.90
59556;DHT22;45374;52.746;6.304;2023-03-01T07:16:23;-3.80;99.90
59556;DHT22;45374;52.746;6.304;2023-03-01T07:18:49;-3.80;99.90
59556;DHT22;45374;52.746;6.304;2023-03-01T07:21:15;-3.80;99.90
59556;DHT22;45374;52.746;6.304;2023-03-01T07:23:41;-3.70;99.90
59556;DHT22;45374;52.746;6.304;2023-03-01T07:26:07;-3.60;99.90
59556;DHT22;45374;52.746;6.304;2023-03-01T07:28:33;-3.60;99.90
59556;DHT22;45374;52.746;6.304;2023-03-01T07:31:05;-3.60;99.90
59556;DHT22;45374;52.746;6.304;2023-03-01T07:33:31;-3.50;99.90
59556;DHT22;45374;52.746;6.304;2023-03-01T07:36:01;-3.50;99.90
59556;DHT22;45374;52.746;6.304;2023-03-01T07:38:28;-3.50;99.90
59556;DHT22;45374;52.746;6.304;2023-03-01T07:40:58;-3.40;99.90
59556;DHT22;45374;52.746;6.304;2023-03-01T07:43:24;-3.30;99.90
59556;DHT22;45374;52.746;6.304;2023-03-01T07:45:49;-3.30;99.90
59556;DHT22;45374;52.746;6.304;2023-03-01T07:48:16;-3.30;99.90
59556;DHT22;45374;52.746;6.304;2023-03-01T07:50:41;-3.20;99.90
59556;DHT22;45374;52.746;6.304;2023-03-01T07:53:08;-3.00;99.90
59556;DHT22;45374;52.746;6.304;2023-03-01T07:55:33;-3.00;99.90
59556;DHT22;45374;52.746;6.304;2023-03-01T07:57:59;-2.90;99.90
59556;DHT22;45374;52.746;6.304;2023-03-01T08:00:24;-2.80;99.90
59556;DHT22;45374;52.746;6.304;2023-03-01T08:02:50;-2.70;99.90
59556;DHT22;45374;52.746;6.304;2023-03-01T08:05:16;-2.60;99.90
59556;DHT22;45374;52.746;6.304;2023-03-01T08:07:41;-2.50;99.90
59556;DHT22;45374;52.746;6.304;2023-03-01T08:10:07;-2.30;99.90
59556;DHT22;45374;52.746;6.304;2023-03-01T08:12:33;-2.20;99.90
59556;DHT22;45374;52.746;6.304;2023-03-01T08:14:59;-2.00;99.90
59556;DHT22;45374;52.746;6.304;2023-03-01T08:17:25;-1.90;99.90
59556;DHT22;45374;52.746;6.304;2023-03-01T08:23:17;-1.70;99.90
59556;DHT22;45374;52.746;6.304;2023-03-01T08:25:43;-1.50;99.90
59556;DHT22;45374;52.746;6.304;2023-03-01T08:28:08;-1.40;99.90
59556;DHT22;45374;52.746;6.304;2023-03-01T08:30:34;-1.30;99.90
59556;DHT22;45374;52.746;6.304;2023-03-01T08:33:00;-1.10;99.90
59556;DHT22;45374;52.746;6.304;2023-03-01T08:35:25;-1.00;99.90
59556;DHT22;45374;52.746;6.304;2023-03-01T08:41:32;-0.70;99.90
59556;DHT22;45374;52.746;6.304;2023-03-01T08:43:58;-0.50;99.90
59556;DHT22;45374;52.746;6.304;2023-03-01T08:46:36;-0.30;99.90
59556;DHT22;45374;52.746;6.304;2023-03-01T08:49:12;-0.10;99.90
59556;DHT22;45374;52.746;6.304;2023-03-01T08:51:39;0.10;99.90
59556;DHT22;45374;52.746;6.304;2023-03-01T08:54:09;0.30;99.90
59556;DHT22;45374;52.746;6.304;2023-03-01T08:56:36;0.40;99.90
59556;DHT22;45374;52.746;6.304;2023-03-01T08:59:02;0.50;99.90
59556;DHT22;45374;52.746;6.304;2023-03-01T09:01:28;0.70;99.90
59556;DHT22;45374;52.746;6.304;2023-03-01T09:03:53;0.80;99.90
59556;DHT22;45374;52.746;6.304;2023-03-01T09:06:20;0.90;99.90
59556;DHT22;45374;52.746;6.304;2023-03-01T09:08:47;1.00;99.90
59556;DHT22;45374;52.746;6.304;2023-03-01T09:11:19;1.20;99.90
59556;DHT22;45374;52.746;6.304;2023-03-01T09:13:46;1.20;99.90
59556;DHT22;45374;52.746;6.304;2023-03-01T09:16:14;1.40;99.90
59556;DHT22;45374;52.746;6.304;2023-03-01T09:18:40;1.60;99.90
59556;DHT22;45374;52.746;6.304;2023-03-01T09:21:08;1.70;99.90
59556;DHT22;45374;52.746;6.304;2023-03-01T09:23:39;1.80;99.90
59556;DHT22;45374;52.746;6.304;2023-03-01T09:26:11;1.90;99.90
59556;DHT22;45374;52.746;6.304;2023-03-01T09:28:37;2.00;99.90
59556;DHT22;45374;52.746;6.304;2023-03-01T09:31:04;2.20;99.90
59556;DHT22;45374;52.746;6.304;2023-03-01T09:33:31;2.30;99.90
59556;DHT22;45374;52.746;6.304;2023-03-01T09:36:05;2.40;99.90
59556;DHT22;45374;52.746;6.304;2023-03-01T09:38:31;2.50;99.90
59556;DHT22;45374;52.746;6.304;2023-03-01T09:40:59;2.70;99.90
59556;DHT22;45374;52.746;6.304;2023-03-01T09:43:45;2.80;99.90
59556;DHT22;45374;52.746;6.304;2023-03-01T09:46:13;2.90;99.90
59556;DHT22;45374;52.746;6.304;2023-03-01T09:48:45;3.00;99.90
59556;DHT22;45374;52.746;6.304;2023-03-01T09:51:19;3.10;99.90
59556;DHT22;45374;52.746;6.304;2023-03-01T09:53:47;3.20;99.90
59556;DHT22;45374;52.746;6.304;2023-03-01T09:56:24;3.30;99.90
59556;DHT22;45374;52.746;6.304;2023-03-01T10:02:16;3.50;99.90
59556;DHT22;45374;52.746;6.304;2023-03-01T10:04:47;3.60;99.90
59556;DHT22;45374;52.746;6.304;2023-03-01T10:09:43;3.80;99.90
59556;DHT22;45374;52.746;6.304;2023-03-01T10:12:15;3.80;99.90
59556;DHT22;45374;52.746;6.304;2023-03-01T10:15:06;3.90;99.90
59556;DHT22;45374;52.746;6.304;2023-03-01T10:20:24;4.10;99.90
59556;DHT22;45374;52.746;6.304;2023-03-01T10:22:51;4.20;99.90
59556;DHT22;45374;52.746;6.304;2023-03-01T10:34:30;4.50;99.90
59556;DHT22;45374;52.746;6.304;2023-03-01T10:36:57;4.60;99.90
59556;DHT22;45374;52.746;6.304;2023-03-01T10:39:26;4.70;99.90
59556;DHT22;45374;52.746;6.304;2023-03-01T10:41:58;4.70;99.90
59556;DHT22;45374;52.746;6.304;2023-03-01T10:47:02;4.90;99.90
59556;DHT22;45374;52.746;6.304;2023-03-01T10:49:28;5.00;99.90
59556;DHT22;45374;52.746;6.304;2023-03-01T10:51:54;5.00;99.90
59556;DHT22;45374;52.746;6.304;2023-03-01T10:54:27;5.10;99.90
59556;DHT22;45374;52.746;6.304;2023-03-01T10:56:55;5.10;99.90
59556;DHT22;45374;52.746;6.304;2023-03-01T10:59:35;5.20;99.90
59556;DHT22;45374;52.746;6.304;2023-03-01T11:02:29;5.20;99.90
59556;DHT22;45374;52.746;6.304;2023-03-01T11:05:02;5.20;99.90
59556;DHT22;45374;52.746;6.304;2023-03-01T11:07:50;5.30;99.90
59556;DHT22;45374;52.746;6.304;2023-03-01T11:10:21;5.40;99.90
59556;DHT22;45374;52.746;6.304;2023-03-01T11:12:47;5.40;99.90
59556;DHT22;45374;52.746;6.304;2023-03-01T11:15:27;5.50;99.90
59556;DHT22;45374;52.746;6.304;2023-03-01T11:17:54;5.50;99.90
59556;DHT22;45374;52.746;6.304;2023-03-01T11:20:26;5.60;99.90
59556;DHT22;45374;52.746;6.304;2023-03-01T11:22:57;5.60;99.90
59556;DHT22;45374;52.746;6.304;2023-03-01T11:25:32;5.70;99.90
59556;DHT22;45374;52.746;6.304;2023-03-01T11:27:59;5.80;99.90
59556;DHT22;45374;52.746;6.304;2023-03-01T11:30:38;5.90;99.90
59556;DHT22;45374;52.746;6.304;2023-03-01T11:35:37;6.00;99.90
59556;DHT22;45374;52.746;6.304;2023-03-01T11:38:21;6.00;99.90
59556;DHT22;45374;52.746;6.304;2023-03-01T11:51:53;6.20;99.90
59556;DHT22;45374;52.746;6.304;2023-03-01T11:54:30;6.20;99.90
59556;DHT22;45374;52.746;6.304;2023-03-01T11:57:08;6.30;99.90
59556;DHT22;45374;52.746;6.304;2023-03-01T12:00:03;6.40;99.90
59556;DHT22;45374;52.746;6.304;2023-03-01T12:02:34;6.40;99.90
59556;DHT22;45374;52.746;6.304;2023-03-01T12:05:38;6.50;99.90
59556;DHT22;45374;52.746;6.304;2023-03-01T12:10:52;6.50;99.90
59556;DHT22;45374;52.746;6.304;2023-03-01T12:16:34;6.60;99.90
59556;DHT22;45374;52.746;6.304;2023-03-01T12:22:30;6.70;99.90
59556;DHT22;45374;52.746;6.304;2023-03-01T12:36:13;6.80;99.90
59556;DHT22;45374;52.746;6.304;2023-03-01T12:38:46;6.80;99.90
59556;DHT22;45374;52.746;6.304;2023-03-01T12:41:28;6.90;99.90
59556;DHT22;45374;52.746;6.304;2023-03-01T12:49:41;6.90;99.90
59556;DHT22;45374;52.746;6.304;2023-03-01T12:52:27;7.00;99.90
59556;DHT22;45374;52.746;6.304;2023-03-01T12:54:56;7.00;99.90
59556;DHT22;45374;52.746;6.304;2023-03-01T12:57:31;6.90;99.90
59556;DHT22;45374;52.746;6.304;2023-03-01T13:00:06;6.90;99.90
59556;DHT22;45374;52.746;6.304;2023-03-01T13:02:41;7.00;99.90
59556;DHT22;45374;52.746;6.304;2023-03-01T13:10:48;7.00;99.90
59556;DHT22;45374;52.746;6.304;2023-03-01T13:13:26;7.00;99.90
59556;DHT22;45374;52.746;6.304;2023-03-01T13:15:52;7.00;99.90
59556;DHT22;45374;52.746;6.304;2023-03-01T13:20:48;7.10;99.90
59556;DHT22;45374;52.746;6.304;2023-03-01T13:28:53;7.10;99.90
59556;DHT22;45374;52.746;6.304;2023-03-01T13:36:11;7.20;99.90
59556;DHT22;45374;52.746;6.304;2023-03-01T13:39:01;7.20;99.90
59556;DHT22;45374;52.746;6.304;2023-03-01T13:41:56;7.20;99.90
59556;DHT22;45374;52.746;6.304;2023-03-01T13:49:51;7.30;99.90
59556;DHT22;45374;52.746;6.304;2023-03-01T13:52:59;7.30;99.90
59556;DHT22;45374;52.746;6.304;2023-03-01T13:55:41;7.30;99.90
59556;DHT22;45374;52.746;6.304;2023-03-01T13:58:27;7.40;99.90
59556;DHT22;45374;52.746;6.304;2023-03-01T14:01:05;7.30;99.90
59556;DHT22;45374;52.746;6.304;2023-03-01T14:03:32;7.30;99.90
59556;DHT22;45374;52.746;6.304;2023-03-01T14:06:03;7.30;99.90
59556;DHT22;45374;52.746;6.304;2023-03-01T14:08:30;7.20;99.90
59556;DHT22;45374;52.746;6.304;2023-03-01T14:21:36;7.20;99.90
59556;DHT22;45374;52.746;6.304;2023-03-01T14:24:01;7.30;99.90
59556;DHT22;45374;52.746;6.304;2023-03-01T14:26:27;7.30;99.90
59556;DHT22;45374;52.746;6.304;2023-03-01T14:28:53;7.30;99.90
59556;DHT22;45374;52.746;6.304;2023-03-01T14:31:38;7.40;99.90
59556;DHT22;45374;52.746;6.304;2023-03-01T14:34:05;7.40;99.90
59556;DHT22;45374;52.746;6.304;2023-03-01T14:36:33;7.40;99.90
59556;DHT22;45374;52.746;6.304;2023-03-01T14:38:59;7.30;99.90
59556;DHT22;45374;52.746;6.304;2023-03-01T14:41:33;7.30;99.90
59556;DHT22;45374;52.746;6.304;2023-03-01T14:44:01;7.30;99.90
59556;DHT22;45374;52.746;6.304;2023-03-01T14:46:39;7.30;99.90
59556;DHT22;45374;52.746;6.304;2023-03-01T14:49:15;7.30;99.90
59556;DHT22;45374;52.746;6.304;2023-03-01T14:51:43;7.30;99.90
59556;DHT22;45374;52.746;6.304;2023-03-01T14:54:35;7.30;99.90
59556;DHT22;45374;52.746;6.304;2023-03-01T14:57:03;7.30;99.90
59556;DHT22;45374;52.746;6.304;2023-03-01T14:59:28;7.30;99.90
59556;DHT22;45374;52.746;6.304;2023-03-01T15:01:56;7.30;99.90
59556;DHT22;45374;52.746;6.304;2023-03-01T15:04:23;7.30;99.90
59556;DHT22;45374;52.746;6.304;2023-03-01T15:06:54;7.30;99.90
59556;DHT22;45374;52.746;6.304;2023-03-01T15:09:20;7.40;99.90
59556;DHT22;45374;52.746;6.304;2023-03-01T15:11:47;7.40;99.90
59556;DHT22;45374;52.746;6.304;2023-03-01T15:14:39;7.30;99.90
59556;DHT22;45374;52.746;6.304;2023-03-01T15:17:26;7.30;99.90
59556;DHT22;45374;52.746;6.304;2023-03-01T15:19:54;7.30;99.90
59556;DHT22;45374;52.746;6.304;2023-03-01T15:22:20;7.30;99.90
59556;DHT22;45374;52.746;6.304;2023-03-01T15:24:50;7.30;99.90
59556;DHT22;45374;52.746;6.304;2023-03-01T15:27:18;7.30;99.90
59556;DHT22;45374;52.746;6.304;2023-03-01T15:29:58;7.40;99.90
59556;DHT22;45374;52.746;6.304;2023-03-01T15:32:34;7.30;99.90
59556;DHT22;45374;52.746;6.304;2023-03-01T15:38:33;7.20;99.90
59556;DHT22;45374;52.746;6.304;2023-03-01T15:41:02;7.10;99.90
59556;DHT22;45374;52.746;6.304;2023-03-01T15:44:00;7.00;99.90
59556;DHT22;45374;52.746;6.304;2023-03-01T15:46:34;7.00;99.90
59556;DHT22;45374;52.746;6.304;2023-03-01T15:49:33;7.00;99.90
59556;DHT22;45374;52.746;6.304;2023-03-01T15:52:01;7.00;99.90
59556;DHT22;45374;52.746;6.304;2023-03-01T15:54:27;6.90;99.90
59556;DHT22;45374;52.746;6.304;2023-03-01T15:56:53;6.90;99.90
59556;DHT22;45374;52.746;6.304;2023-03-01T15:59:19;6.90;99.90
59556;DHT22;45374;52.746;6.304;2023-03-01T16:01:45;6.90;99.90
59556;DHT22;45374;52.746;6.304;2023-03-01T16:04:13;6.90;99.90
59556;DHT22;45374;52.746;6.304;2023-03-01T16:06:52;6.90;99.90
59556;DHT22;45374;52.746;6.304;2023-03-01T16:09:22;6.90;99.90
59556;DHT22;45374;52.746;6.304;2023-03-01T16:11:49;6.90;99.90
59556;DHT22;45374;52.746;6.304;2023-03-01T16:14:15;6.90;99.90
59556;DHT22;45374;52.746;6.304;2023-03-01T16:16:42;6.80;99.90
59556;DHT22;45374;52.746;6.304;2023-03-01T16:19:07;6.80;99.90
59556;DHT22;45374;52.746;6.304;2023-03-01T16:21:33;6.70;99.90
59556;DHT22;45374;52.746;6.304;2023-03-01T16:23:58;6.70;99.90
59556;DHT22;45374;52.746;6.304;2023-03-01T16:26:24;6.70;99.90
59556;DHT22;45374;52.746;6.304;2023-03-01T16:28:49;6.70;99.90
59556;DHT22;45374;52.746;6.304;2023-03-01T16:31:19;6.70;99.90
59556;DHT22;45374;52.746;6.304;2023-03-01T16:33:45;6.60;99.90
59556;DHT22;45374;52.746;6.304;2023-03-01T16:36:16;6.50;99.90
59556;DHT22;45374;52.746;6.304;2023-03-01T16:38:42;6.40;99.90
59556;DHT22;45374;52.746;6.304;2023-03-01T16:41:13;6.30;99.90
59556;DHT22;45374;52.746;6.304;2023-03-01T16:43:39;6.30;99.90
59556;DHT22;45374;52.746;6.304;2023-03-01T16:46:26;6.20;99.90
59556;DHT22;45374;52.746;6.304;2023-03-01T16:48:53;6.10;99.90
59556;DHT22;45374;52.746;6.304;2023-03-01T16:51:19;6.00;99.90
59556;DHT22;45374;52.746;6.304;2023-03-01T16:53:46;6.00;99.90
59556;DHT22;45374;52.746;6.304;2023-03-01T16:56:12;6.00;99.90
59556;DHT22;45374;52.746;6.304;2023-03-01T16:58:39;5.90;99.90
59556;DHT22;45374;52.746;6.304;2023-03-01T17:01:11;5.80;99.90
59556;DHT22;45374;52.746;6.304;2023-03-01T17:03:38;5.60;99.90
59556;DHT22;45374;52.746;6.304;2023-03-01T17:06:06;5.50;99.90
59556;DHT22;45374;52.746;6.304;2023-03-01T17:08:32;5.30;99.90
59556;DHT22;45374;52.746;6.304;2023-03-01T17:11:10;5.10;99.90
59556;DHT22;45374;52.746;6.304;2023-03-01T17:13:37;5.00;99.90
59556;DHT22;45374;52.746;6.304;2023-03-01T17:16:05;4.90;99.90
59556;DHT22;45374;52.746;6.304;2023-03-01T17:18:31;4.70;99.90
59556;DHT22;45374;52.746;6.304;2023-03-01T17:20:57;4.60;99.90
59556;DHT22;45374;52.746;6.304;2023-03-01T17:23:23;4.40;99.90
59556;DHT22;45374;52.746;6.304;2023-03-01T17:25:48;4.30;99.90
59556;DHT22;45374;52.746;6.304;2023-03-01T17:28:14;4.20;99.90
59556;DHT22;45374;52.746;6.304;2023-03-01T17:30:44;4.10;99.90
59556;DHT22;45374;52.746;6.304;2023-03-01T17:33:12;4.00;99.90
59556;DHT22;45374;52.746;6.304;2023-03-01T17:35:38;3.90;99.90
59556;DHT22;45374;52.746;6.304;2023-03-01T17:38:04;3.80;99.90
59556;DHT22;45374;52.746;6.304;2023-03-01T17:40:30;3.70;99.90
59556;DHT22;45374;52.746;6.304;2023-03-01T17:42:57;3.70;99.90
59556;DHT22;45374;52.746;6.304;2023-03-01T17:45:22;3.70;99.90
59556;DHT22;45374;52.746;6.304;2023-03-01T17:47:48;3.60;99.90
59556;DHT22;45374;52.746;6.304;2023-03-01T17:50:13;3.60;99.90
59556;DHT22;45374;52.746;6.304;2023-03-01T17:52:39;3.50;99.90